Time;durP1;ratioP1;P1;durP2;ratioP2;P2;SDS_P1;SDS_P2;PMS_P1;PMS_P2;Temp;Humidity;BMP_temperature;BMP_pressure;BME280_temperature;BME280_humidity;BME280_pressure;Samples;Min_cycle;Max_cycle;Signal;HPM_P1;HPM_P2
2022/10/19 00:01:53;;;;;;;15.47;7.30;;;;;;;;;;5074297;28;20467;-69
2022/10/19 00:04:20;;;;;;;20.50;7.73;;;;;;;;;;5074658;28;20554;-69
2022/10/19 00:06:47;;;;;;;15.33;6.70;;;;;;;;;;5073847;28;20460;-69
2022/10/19 00:09:16;;;;;;;14.40;7.70;;;;;;;;;;5074225;28;20783;-69
2022/10/19 00:11:44;;;;;;;15.00;7.47;;;;;;;;;;5074075;28;20498;-69
2022/10/19 00:14:12;;;;;;;19.73;8.07;;;;;;;;;;5073817;28;21016;-69
2022/10/19 00:16:40;;;;;;;12.18;7.25;;;;;;;;;;5074023;28;20448;-70
2022/10/19 00:19:09;;;;;;;19.17;7.43;;;;;;;;;;5073811;28;20194;-70
2022/10/19 00:21:38;;;;;;;10.50;6.78;;;;;;;;;;5074022;28;20194;-70
2022/10/19 00:24:05;;;;;;;16.95;7.00;;;;;;;;;;5073791;28;20691;-69
2022/10/19 00:26:33;;;;;;;12.25;7.38;;;;;;;;;;5074179;28;20200;-70
2022/10/19 00:29:00;;;;;;;12.82;6.93;;;;;;;;;;5073884;28;20195;-69
2022/10/19 00:31:28;;;;;;;16.92;7.80;;;;;;;;;;5073994;28;20197;-69
2022/10/19 00:33:56;;;;;;;9.10;7.18;;;;;;;;;;5073814;28;20198;-69
2022/10/19 00:36:26;;;;;;;9.93;7.28;;;;;;;;;;5074062;28;20201;-69
2022/10/19 00:38:54;;;;;;;12.70;8.02;;;;;;;;;;5073800;28;20202;-69
2022/10/19 00:41:22;;;;;;;10.65;7.40;;;;;;;;;;5073797;28;20562;-69
2022/10/19 00:43:57;;;;;;;9.80;6.03;;;;;;;;;;5073781;28;20194;-69
2022/10/19 00:46:24;;;;;;;8.75;7.30;;;;;;;;;;5074019;28;20241;-69
2022/10/19 00:48:52;;;;;;;21.90;7.83;;;;;;;;;;5073611;28;20197;-69
2022/10/19 00:51:20;;;;;;;13.77;7.30;;;;;;;;;;5073307;28;20440;-70
2022/10/19 00:53:49;;;;;;;10.50;7.17;;;;;;;;;;5073214;28;20450;-69
2022/10/19 00:56:16;;;;;;;11.63;7.97;;;;;;;;;;5073562;28;20444;-69
2022/10/19 00:58:44;;;;;;;11.77;7.63;;;;;;;;;;5073140;28;20194;-70
2022/10/19 01:01:13;;;;;;;16.48;8.45;;;;;;;;;;5073682;28;20197;-69
2022/10/19 01:03:41;;;;;;;9.90;7.68;;;;;;;;;;5073390;28;20202;-69
2022/10/19 01:06:08;;;;;;;17.20;7.97;;;;;;;;;;5073498;28;20220;-69
2022/10/19 01:08:36;;;;;;;12.52;7.97;;;;;;;;;;5073545;28;20559;-69
2022/10/19 01:11:13;;;;;;;17.10;8.05;;;;;;;;;;5073461;28;20194;-69
2022/10/19 01:13:43;;;;;;;12.07;7.95;;;;;;;;;;5073561;28;20181;-69
2022/10/19 01:16:15;;;;;;;11.40;7.80;;;;;;;;;;5073508;28;20556;-69
2022/10/19 01:18:45;;;;;;;15.80;9.70;;;;;;;;;;5073691;28;20193;-69
2022/10/19 01:21:23;;;;;;;14.37;8.73;;;;;;;;;;5073011;28;20205;-69
2022/10/19 01:24:04;;;;;;;17.80;8.98;;;;;;;;;;5073294;28;20424;-69
2022/10/19 01:26:44;;;;;;;14.15;8.30;;;;;;;;;;5073250;28;20228;-69
2022/10/19 01:29:15;;;;;;;10.30;8.27;;;;;;;;;;5073193;28;20519;-69
2022/10/19 01:31:47;;;;;;;18.92;9.48;;;;;;;;;;5072932;28;20191;-69
2022/10/19 01:34:17;;;;;;;15.27;8.90;;;;;;;;;;5073386;28;20205;-69
2022/10/19 01:36:47;;;;;;;10.82;8.48;;;;;;;;;;5072769;28;20209;-69
2022/10/19 01:39:18;;;;;;;19.92;8.57;;;;;;;;;;5073300;28;20560;-69
2022/10/19 01:41:48;;;;;;;15.77;8.70;;;;;;;;;;5072820;28;20178;-69
2022/10/19 01:44:17;;;;;;;24.40;8.82;;;;;;;;;;5072770;28;20553;-69
2022/10/19 01:46:50;;;;;;;11.85;8.32;;;;;;;;;;5072703;28;20741;-69
2022/10/19 01:49:20;;;;;;;19.20;10.60;;;;;;;;;;5073327;28;20214;-69
2022/10/19 01:51:50;;;;;;;10.37;8.57;;;;;;;;;;5072778;28;20182;-69
2022/10/19 01:54:18;;;;;;;11.00;9.05;;;;;;;;;;5072984;28;20454;-69
2022/10/19 01:56:47;;;;;;;18.85;9.00;;;;;;;;;;5072680;28;20200;-70
2022/10/19 01:59:15;;;;;;;11.27;8.80;;;;;;;;;;5072538;28;20655;-69
2022/10/19 02:01:44;;;;;;;14.43;8.80;;;;;;;;;;5072619;28;20197;-69
2022/10/19 02:04:13;;;;;;;12.07;8.20;;;;;;;;;;5072816;28;20318;-69
2022/10/19 02:06:41;;;;;;;14.65;8.82;;;;;;;;;;5073263;28;20248;-70
2022/10/19 02:09:08;;;;;;;14.57;8.90;;;;;;;;;;5073001;28;20219;-69
2022/10/19 02:11:37;;;;;;;14.43;8.88;;;;;;;;;;5073941;28;20652;-69
2022/10/19 02:14:06;;;;;;;17.75;8.35;;;;;;;;;;5076411;28;20194;-69
2022/10/19 02:16:35;;;;;;;11.43;8.95;;;;;;;;;;5076158;28;20215;-68
2022/10/19 02:19:03;;;;;;;9.93;7.15;;;;;;;;;;5076361;28;20244;-69
2022/10/19 02:21:32;;;;;;;9.93;8.27;;;;;;;;;;5076076;28;20236;-69
2022/10/19 02:23:59;;;;;;;16.95;8.50;;;;;;;;;;5076326;28;20530;-69
2022/10/19 02:26:27;;;;;;;18.83;10.63;;;;;;;;;;5076349;28;20228;-69
2022/10/19 02:28:54;;;;;;;14.30;8.30;;;;;;;;;;5075837;28;20204;-68
2022/10/19 02:31:22;;;;;;;13.60;9.00;;;;;;;;;;5074979;28;20195;-69
2022/10/19 02:33:49;;;;;;;18.02;9.85;;;;;;;;;;5076426;28;20197;-70
2022/10/19 02:36:16;;;;;;;16.17;9.63;;;;;;;;;;5076522;28;20197;-69
2022/10/19 02:38:45;;;;;;;11.25;9.23;;;;;;;;;;5076281;28;20198;-69
2022/10/19 02:41:16;;;;;;;10.52;9.32;;;;;;;;;;5076169;28;20194;-69
2022/10/19 02:43:44;;;;;;;14.63;8.80;;;;;;;;;;5075600;28;20636;-70
2022/10/19 02:46:14;;;;;;;11.68;8.65;;;;;;;;;;5075923;28;20224;-69
2022/10/19 02:48:42;;;;;;;13.13;8.30;;;;;;;;;;5075495;28;20201;-70
2022/10/19 02:51:24;;;;;;;15.73;8.52;;;;;;;;;;5075947;28;20228;-70
2022/10/19 02:53:53;;;;;;;20.67;9.18;;;;;;;;;;5075557;28;20204;-69
2022/10/19 02:56:20;;;;;;;18.65;9.40;;;;;;;;;;5075753;28;20563;-68
2022/10/19 02:58:47;;;;;;;15.27;9.40;;;;;;;;;;5075618;28;20191;-71
2022/10/19 03:01:14;;;;;;;10.40;8.40;;;;;;;;;;5075643;28;20194;-70
2022/10/19 03:03:42;;;;;;;12.48;7.82;;;;;;;;;;5075275;28;20194;-69
2022/10/19 03:06:09;;;;;;;11.55;8.30;;;;;;;;;;5075518;28;20240;-70
2022/10/19 03:08:36;;;;;;;13.35;8.05;;;;;;;;;;5075100;28;20202;-68
2022/10/19 03:11:05;;;;;;;11.52;7.78;;;;;;;;;;5074969;28;20202;-70
2022/10/19 03:13:32;;;;;;;11.77;8.45;;;;;;;;;;5075372;28;20190;-70
2022/10/19 03:16:06;;;;;;;15.50;9.70;;;;;;;;;;5074935;28;20218;-68
2022/10/19 03:18:33;;;;;;;12.43;7.53;;;;;;;;;;5075037;28;20190;-68
2022/10/19 03:21:04;;;;;;;15.25;8.80;;;;;;;;;;5074815;28;20194;-69
2022/10/19 03:23:31;;;;;;;15.13;8.77;;;;;;;;;;5074114;28;20198;-69
2022/10/19 03:25:59;;;;;;;14.07;8.00;;;;;;;;;;5075171;28;20230;-69
2022/10/19 03:28:27;;;;;;;19.40;9.18;;;;;;;;;;5074777;28;20201;-69
2022/10/19 03:30:55;;;;;;;13.13;8.45;;;;;;;;;;5074835;28;20674;-69
2022/10/19 03:33:22;;;;;;;11.65;8.32;;;;;;;;;;5075271;28;20190;-69
2022/10/19 03:35:49;;;;;;;9.27;8.35;;;;;;;;;;5074409;28;20194;-70
2022/10/19 03:38:16;;;;;;;12.40;8.80;;;;;;;;;;5074904;28;20196;-68
2022/10/19 03:40:44;;;;;;;11.48;9.30;;;;;;;;;;5074468;28;20197;-67
2022/10/19 03:43:11;;;;;;;12.90;8.10;;;;;;;;;;5074739;28;20197;-68
2022/10/19 03:45:39;;;;;;;12.82;8.77;;;;;;;;;;5074792;28;20214;-68
2022/10/19 03:48:07;;;;;;;10.77;8.20;;;;;;;;;;5074708;28;20255;-67
2022/10/19 03:50:34;;;;;;;17.48;8.68;;;;;;;;;;5074719;28;20193;-67
2022/10/19 03:53:01;;;;;;;17.75;9.10;;;;;;;;;;5077807;28;20207;-68
2022/10/19 03:55:28;;;;;;;10.13;8.70;;;;;;;;;;5093875;28;20198;-68
2022/10/19 03:57:55;;;;;;;12.90;9.20;;;;;;;;;;5094433;28;20201;-68
2022/10/19 04:00:23;;;;;;;18.90;9.10;;;;;;;;;;5094249;28;20197;-68
2022/10/19 04:02:51;;;;;;;11.27;8.73;;;;;;;;;;5094156;28;20193;-68
2022/10/19 04:05:18;;;;;;;16.05;9.13;;;;;;;;;;5093925;28;20197;-68
2022/10/19 04:07:45;;;;;;;12.20;8.07;;;;;;;;;;5094195;28;20200;-68
2022/10/19 04:10:13;;;;;;;11.55;8.65;;;;;;;;;;5094487;28;20194;-68
2022/10/19 04:12:40;;;;;;;11.88;8.40;;;;;;;;;;5094210;28;20197;-68
2022/10/19 04:15:07;;;;;;;9.15;8.25;;;;;;;;;;5093918;28;20203;-68
2022/10/19 04:17:35;;;;;;;14.13;8.68;;;;;;;;;;5094360;28;20287;-68
2022/10/19 04:20:03;;;;;;;11.57;8.45;;;;;;;;;;5093955;28;20197;-68
2022/10/19 04:22:30;;;;;;;10.23;8.75;;;;;;;;;;5094039;28;20197;-68
2022/10/19 04:24:58;;;;;;;13.13;8.38;;;;;;;;;;5093605;28;20332;-68
2022/10/19 04:27:25;;;;;;;13.90;7.90;;;;;;;;;;5094166;28;20252;-68
2022/10/19 04:29:52;;;;;;;14.38;8.30;;;;;;;;;;5094065;28;20212;-68
2022/10/19 04:32:19;;;;;;;21.55;9.32;;;;;;;;;;5093485;28;20288;-68
2022/10/19 04:34:46;;;;;;;19.00;10.25;;;;;;;;;;5093489;28;20194;-68
2022/10/19 04:37:15;;;;;;;14.32;8.35;;;;;;;;;;5093945;28;20197;-68
2022/10/19 04:39:43;;;;;;;15.20;8.70;;;;;;;;;;5093991;28;20574;-68
2022/10/19 04:42:10;;;;;;;15.77;9.50;;;;;;;;;;5093751;28;20200;-68
2022/10/19 04:44:38;;;;;;;11.68;9.07;;;;;;;;;;5093647;28;20200;-68
2022/10/19 04:47:08;;;;;;;11.85;8.35;;;;;;;;;;5093411;28;20218;-68
2022/10/19 04:49:35;;;;;;;15.40;8.82;;;;;;;;;;5093863;28;20204;-68
2022/10/19 04:52:02;;;;;;;17.02;10.38;;;;;;;;;;5093569;28;20209;-69
2022/10/19 04:54:30;;;;;;;15.82;9.40;;;;;;;;;;5093067;28;20194;-68
2022/10/19 04:56:58;;;;;;;15.52;9.70;;;;;;;;;;5093860;28;20201;-68
2022/10/19 04:59:25;;;;;;;14.23;9.13;;;;;;;;;;5093769;28;20197;-68
2022/10/19 05:01:52;;;;;;;15.18;8.45;;;;;;;;;;5093545;28;20296;-68
2022/10/19 05:04:19;;;;;;;13.55;9.43;;;;;;;;;;5093585;28;20197;-67
2022/10/19 05:06:46;;;;;;;17.95;9.73;;;;;;;;;;5093646;28;20309;-67
2022/10/19 05:09:13;;;;;;;13.70;9.57;;;;;;;;;;5093242;28;20197;-68
2022/10/19 05:11:42;;;;;;;12.27;9.38;;;;;;;;;;5093767;28;20192;-68
2022/10/19 05:14:09;;;;;;;11.52;9.50;;;;;;;;;;5092948;28;20207;-68
2022/10/19 05:16:36;;;;;;;16.20;10.55;;;;;;;;;;5093470;28;20200;-68
2022/10/19 05:19:04;;;;;;;20.77;10.75;;;;;;;;;;5093377;28;20196;-67
2022/10/19 05:21:31;;;;;;;22.35;11.30;;;;;;;;;;5093298;28;20208;-68
2022/10/19 05:23:58;;;;;;;22.70;10.88;;;;;;;;;;5092939;28;20220;-68
2022/10/19 05:26:26;;;;;;;16.20;12.88;;;;;;;;;;5092957;28;20777;-69
2022/10/19 05:28:56;;;;;;;15.48;11.82;;;;;;;;;;5093573;28;20284;-68
2022/10/19 05:31:24;;;;;;;17.50;13.05;;;;;;;;;;5092837;28;20662;-68
2022/10/19 05:33:51;;;;;;;14.27;11.70;;;;;;;;;;5092564;28;20281;-68
2022/10/19 05:36:20;;;;;;;16.75;11.95;;;;;;;;;;5092772;28;20200;-68
2022/10/19 05:38:48;;;;;;;19.52;13.15;;;;;;;;;;5093306;28;20196;-68
2022/10/19 05:41:15;;;;;;;22.77;13.47;;;;;;;;;;5092979;28;20224;-68
2022/10/19 05:43:43;;;;;;;13.82;12.38;;;;;;;;;;5092949;28;20453;-68
2022/10/19 05:46:12;;;;;;;17.30;15.50;;;;;;;;;;5093990;28;20573;-68
2022/10/19 05:48:39;;;;;;;15.88;12.05;;;;;;;;;;5097104;28;20189;-68
2022/10/19 05:51:07;;;;;;;14.60;13.05;;;;;;;;;;5096727;28;20563;-68
2022/10/19 05:53:35;;;;;;;20.35;11.43;;;;;;;;;;5085150;28;20198;-68
2022/10/19 05:56:04;;;;;;;15.18;10.73;;;;;;;;;;5076380;28;20205;-68
2022/10/19 05:58:31;;;;;;;13.60;11.20;;;;;;;;;;5076180;28;20207;-68
2022/10/19 06:00:59;;;;;;;17.15;10.48;;;;;;;;;;5076420;28;20564;-68
2022/10/19 06:03:28;;;;;;;20.88;13.52;;;;;;;;;;5075846;28;20200;-68
2022/10/19 06:05:56;;;;;;;18.88;12.90;;;;;;;;;;5076189;28;20201;-68
2022/10/19 06:08:23;;;;;;;21.13;12.35;;;;;;;;;;5076263;28;20197;-67
2022/10/19 06:10:56;;;;;;;24.90;13.82;;;;;;;;;;5076292;28;20200;-67
2022/10/19 06:13:24;;;;;;;20.35;13.52;;;;;;;;;;5075904;28;20197;-67
2022/10/19 06:15:52;;;;;;;16.13;12.30;;;;;;;;;;5076207;28;20193;-68
2022/10/19 06:18:19;;;;;;;16.05;13.75;;;;;;;;;;5075794;28;20289;-69
2022/10/19 06:20:48;;;;;;;21.35;14.77;;;;;;;;;;5075926;28;20682;-68
2022/10/19 06:23:15;;;;;;;24.08;12.98;;;;;;;;;;5076073;28;20230;-68
2022/10/19 06:25:42;;;;;;;25.65;12.88;;;;;;;;;;5075644;28;20234;-69
2022/10/19 06:28:09;;;;;;;14.63;13.23;;;;;;;;;;5075619;28;20226;-68
2022/10/19 06:30:39;;;;;;;13.97;12.40;;;;;;;;;;5075652;28;20193;-67
2022/10/19 06:33:07;;;;;;;14.03;10.30;;;;;;;;;;5076117;28;20433;-67
2022/10/19 06:35:34;;;;;;;12.80;11.57;;;;;;;;;;5075972;28;20485;-68
2022/10/19 06:38:02;;;;;;;12.43;10.97;;;;;;;;;;5075413;28;20488;-68
2022/10/19 06:40:29;;;;;;;11.07;9.73;;;;;;;;;;5075831;28;20789;-68
2022/10/19 06:42:57;;;;;;;11.13;10.00;;;;;;;;;;5075808;28;20289;-68
2022/10/19 06:45:25;;;;;;;10.83;9.77;;;;;;;;;;5075349;28;20462;-68
2022/10/19 06:47:52;;;;;;;12.53;9.57;;;;;;;;;;5075749;28;20515;-68
2022/10/19 06:50:20;;;;;;;11.67;10.47;;;;;;;;;;5075402;28;20526;-68
2022/10/19 06:52:47;;;;;;;10.35;9.35;;;;;;;;;;5075598;28;20441;-68
2022/10/19 06:55:16;;;;;;;14.48;9.00;;;;;;;;;;5076047;28;20198;-68
2022/10/19 06:57:44;;;;;;;12.40;11.20;;;;;;;;;;5075002;28;20201;-67
2022/10/19 07:00:12;;;;;;;12.07;10.53;;;;;;;;;;5075569;28;20194;-68
2022/10/19 07:02:39;;;;;;;10.70;9.60;;;;;;;;;;5075442;28;20785;-68
2022/10/19 07:05:07;;;;;;;12.73;10.00;;;;;;;;;;5075647;28;20543;-68
2022/10/19 07:07:34;;;;;;;17.23;10.88;;;;;;;;;;5075336;28;20224;-69
2022/10/19 07:10:01;;;;;;;16.38;11.70;;;;;;;;;;5074968;28;20648;-68
2022/10/19 07:12:30;;;;;;;12.90;10.77;;;;;;;;;;5074927;28;20319;-68
2022/10/19 07:14:57;;;;;;;18.70;11.10;;;;;;;;;;5074889;28;20531;-68
2022/10/19 07:17:24;;;;;;;14.48;11.25;;;;;;;;;;5074727;28;20675;-69
2022/10/19 07:19:51;;;;;;;12.05;10.75;;;;;;;;;;5074712;28;20194;-69
2022/10/19 07:22:18;;;;;;;14.70;10.27;;;;;;;;;;5074733;28;20689;-68
2022/10/19 07:24:46;;;;;;;14.60;10.83;;;;;;;;;;5074628;28;20468;-68
2022/10/19 07:27:13;;;;;;;11.30;9.47;;;;;;;;;;5074837;28;20476;-69
2022/10/19 07:29:41;;;;;;;11.15;10.00;;;;;;;;;;5074812;28;20449;-68
2022/10/19 07:32:09;;;;;;;14.53;11.73;;;;;;;;;;5074537;28;20205;-68
2022/10/19 07:34:36;;;;;;;11.17;10.13;;;;;;;;;;5074752;28;20453;-68
2022/10/19 07:37:03;;;;;;;16.33;10.90;;;;;;;;;;5074381;28;20458;-68
2022/10/19 07:39:30;;;;;;;12.88;9.63;;;;;;;;;;5074331;28;20437;-67
2022/10/19 07:41:57;;;;;;;13.70;10.00;;;;;;;;;;5074355;28;20282;-68
2022/10/19 07:44:25;;;;;;;10.43;9.47;;;;;;;;;;5074694;28;20452;-68
2022/10/19 07:46:53;;;;;;;12.23;10.10;;;;;;;;;;5074109;28;20988;-68
2022/10/19 07:49:21;;;;;;;14.30;9.47;;;;;;;;;;5074541;28;20440;-69
2022/10/19 07:51:52;;;;;;;14.27;10.63;;;;;;;;;;5074333;28;20444;-69
2022/10/19 07:54:20;;;;;;;13.50;10.13;;;;;;;;;;5074278;28;20428;-68
2022/10/19 07:56:47;;;;;;;15.50;9.73;;;;;;;;;;5074312;28;20197;-67
2022/10/19 07:59:16;;;;;;;11.43;10.07;;;;;;;;;;5073765;28;20447;-68
2022/10/19 08:01:43;;;;;;;14.03;8.93;;;;;;;;;;5073772;28;20953;-68
2022/10/19 08:04:12;;;;;;;12.13;8.97;;;;;;;;;;5073946;28;20436;-68
2022/10/19 08:06:39;;;;;;;11.20;8.70;;;;;;;;;;5073528;28;20459;-67
2022/10/19 08:09:06;;;;;;;9.07;8.17;;;;;;;;;;5073041;28;20945;-68
2022/10/19 08:11:35;;;;;;;12.57;6.97;;;;;;;;;;5073618;28;20444;-67
2022/10/19 08:14:02;;;;;;;8.33;6.20;;;;;;;;;;5075417;28;20936;-68
2022/10/19 08:16:31;;;;;;;10.47;6.73;;;;;;;;;;5093096;28;20443;-68
2022/10/19 08:18:59;;;;;;;9.67;7.23;;;;;;;;;;5093240;28;20451;-68
2022/10/19 08:21:28;;;;;;;14.90;7.90;;;;;;;;;;5093196;28;20435;-68
2022/10/19 08:23:55;;;;;;;8.30;7.37;;;;;;;;;;5093434;28;20488;-67
2022/10/19 08:26:23;;;;;;;8.43;7.63;;;;;;;;;;5093931;28;20784;-68
2022/10/19 08:28:50;;;;;;;14.80;7.00;;;;;;;;;;5093545;28;20475;-68
2022/10/19 08:31:21;;;;;;;10.70;7.30;;;;;;;;;;5093807;28;20489;-68
2022/10/19 08:33:49;;;;;;;8.23;6.00;;;;;;;;;;5094260;28;20520;-68
2022/10/19 08:36:18;;;;;;;8.60;6.20;;;;;;;;;;5094312;28;20473;-67
2022/10/19 08:38:47;;;;;;;9.83;5.80;;;;;;;;;;5093386;28;20968;-67
2022/10/19 08:41:22;;;;;;;8.97;5.93;;;;;;;;;;5093438;28;20436;-67
2022/10/19 08:43:57;;;;;;;11.40;6.13;;;;;;;;;;5093337;28;20427;-68
2022/10/19 08:46:26;;;;;;;12.83;8.33;;;;;;;;;;5093886;28;20427;-67
2022/10/19 08:48:53;;;;;;;6.33;5.33;;;;;;;;;;5093105;28;20536;-68
2022/10/19 08:51:20;;;;;;;15.70;4.97;;;;;;;;;;5093330;28;20479;-67
2022/10/19 08:53:53;;;;;;;9.40;5.30;;;;;;;;;;5093464;28;20465;-68
2022/10/19 08:56:25;;;;;;;16.37;4.70;;;;;;;;;;5093311;28;21017;-68
2022/10/19 08:59:10;;;;;;;7.40;4.77;;;;;;;;;;5093238;28;20926;-67
2022/10/19 09:01:40;;;;;;;6.57;4.07;;;;;;;;;;5093066;28;20454;-68
2022/10/19 09:04:10;;;;;;;5.97;3.87;;;;;;;;;;5093756;28;20793;-69
2022/10/19 09:06:40;;;;;;;5.13;3.50;;;;;;;;;;5094012;28;20458;-67
2022/10/19 09:09:13;;;;;;;7.03;3.00;;;;;;;;;;5093471;28;20499;-68
2022/10/19 09:11:43;;;;;;;3.90;2.93;;;;;;;;;;5093286;28;20433;-67
2022/10/19 09:14:13;;;;;;;9.17;3.50;;;;;;;;;;5093550;28;20447;-68
2022/10/19 09:16:40;;;;;;;5.83;3.00;;;;;;;;;;5093093;28;20444;-68
2022/10/19 09:19:13;;;;;;;3.03;2.60;;;;;;;;;;5093545;28;20472;-68
2022/10/19 09:21:44;;;;;;;5.30;3.50;;;;;;;;;;5095104;28;20849;-68
2022/10/19 09:24:17;;;;;;;10.73;4.07;;;;;;;;;;5097157;28;20464;-68
2022/10/19 09:26:50;;;;;;;4.33;2.40;;;;;;;;;;5098402;28;20771;-68
2022/10/19 09:29:22;;;;;;;6.20;3.00;;;;;;;;;;5096764;28;20455;-68
2022/10/19 09:31:52;;;;;;;6.63;3.23;;;;;;;;;;5097359;28;20458;-68
2022/10/19 09:34:22;;;;;;;6.30;2.57;;;;;;;;;;5096973;28;20455;-68
2022/10/19 09:36:51;;;;;;;2.40;1.90;;;;;;;;;;5096906;28;20449;-67
2022/10/19 09:39:20;;;;;;;3.77;1.80;;;;;;;;;;5097372;28;20447;-68
2022/10/19 09:41:50;;;;;;;2.63;2.00;;;;;;;;;;5097241;28;20775;-68
2022/10/19 09:44:17;;;;;;;3.90;2.13;;;;;;;;;;5096719;28;20456;-68
2022/10/19 09:46:50;;;;;;;3.80;1.87;;;;;;;;;;5097151;28;20441;-68
2022/10/19 09:49:18;;;;;;;6.77;1.80;;;;;;;;;;5096784;28;20799;-67
2022/10/19 09:51:49;;;;;;;3.10;1.90;;;;;;;;;;5096611;28;20952;-68
2022/10/19 09:54:26;;;;;;;5.30;1.73;;;;;;;;;;5097261;28;20469;-68
2022/10/19 09:56:54;;;;;;;6.03;2.13;;;;;;;;;;5097063;28;20508;-67
2022/10/19 09:59:22;;;;;;;8.40;2.20;;;;;;;;;;5097044;28;20449;-67
2022/10/19 10:01:59;;;;;;;6.23;1.77;;;;;;;;;;5096667;28;20452;-68
2022/10/19 10:04:26;;;;;;;5.23;3.27;;;;;;;;;;5096538;28;20957;-68
2022/10/19 10:06:55;;;;;;;8.03;2.47;;;;;;;;;;5096425;28;20937;-68
2022/10/19 10:09:24;;;;;;;4.10;2.30;;;;;;;;;;5096026;28;20477;-69
2022/10/19 10:11:55;;;;;;;4.80;2.80;;;;;;;;;;5096510;28;20449;-68
2022/10/19 10:14:24;;;;;;;5.27;2.07;;;;;;;;;;5097179;28;20446;-68
2022/10/19 10:16:55;;;;;;;6.97;1.80;;;;;;;;;;5096183;28;20992;-68
2022/10/19 10:19:22;;;;;;;6.63;2.20;;;;;;;;;;5096880;28;20546;-68
2022/10/19 10:21:51;;;;;;;5.23;2.80;;;;;;;;;;5096061;28;20463;-68
2022/10/19 10:24:19;;;;;;;2.03;1.83;;;;;;;;;;5096491;28;20516;-68
2022/10/19 10:26:47;;;;;;;1.40;1.30;;;;;;;;;;5096111;28;20440;-69
2022/10/19 10:29:23;;;;;;;6.10;2.07;;;;;;;;;;5096018;28;20481;-68
2022/10/19 10:31:51;;;;;;;1.97;1.57;;;;;;;;;;5095601;28;20516;-68
2022/10/19 10:34:19;;;;;;;2.13;1.93;;;;;;;;;;5096247;28;20448;-69
2022/10/19 10:36:49;;;;;;;2.97;1.57;;;;;;;;;;5096184;28;20556;-68
2022/10/19 10:39:19;;;;;;;7.60;1.77;;;;;;;;;;5095799;28;20465;-69
2022/10/19 10:41:48;;;;;;;2.83;1.87;;;;;;;;;;5095952;28;21022;-68
2022/10/19 10:44:18;;;;;;;2.10;1.90;;;;;;;;;;5095709;28;20456;-68
2022/10/19 10:46:51;;;;;;;2.90;2.60;;;;;;;;;;5095793;28;20851;-68
2022/10/19 10:49:21;;;;;;;4.30;3.00;;;;;;;;;;5095319;28;20476;-68
2022/10/19 10:51:51;;;;;;;4.13;3.00;;;;;;;;;;5095330;28;20432;-68
2022/10/19 10:54:19;;;;;;;5.20;3.03;;;;;;;;;;5095498;28;20457;-69
2022/10/19 10:56:58;;;;;;;5.43;3.07;;;;;;;;;;5095671;28;20448;-69
2022/10/19 10:59:28;;;;;;;8.10;3.20;;;;;;;;;;5095821;28;20436;-68
2022/10/19 11:02:01;;;;;;;9.20;3.47;;;;;;;;;;5095631;28;20440;-68
2022/10/19 11:04:30;;;;;;;5.63;2.70;;;;;;;;;;5095705;28;20441;-67
2022/10/19 11:06:59;;;;;;;4.60;2.60;;;;;;;;;;5095583;28;20481;-67
2022/10/19 11:09:30;;;;;;;6.43;2.77;;;;;;;;;;5094868;28;20476;-69
2022/10/19 11:11:58;;;;;;;8.80;2.87;;;;;;;;;;5095444;28;20425;-67
2022/10/19 11:14:32;;;;;;;4.83;2.50;;;;;;;;;;5095389;28;20446;-68
2022/10/19 11:17:05;;;;;;;4.57;2.80;;;;;;;;;;5095581;28;20441;-68
2022/10/19 11:19:34;;;;;;;3.43;2.63;;;;;;;;;;5095061;28;20927;-67
2022/10/19 11:22:05;;;;;;;7.40;2.50;;;;;;;;;;5095476;28;20447;-68
2022/10/19 11:24:39;;;;;;;3.67;2.73;;;;;;;;;;5095259;28;20492;-67
2022/10/19 11:27:14;;;;;;;6.20;2.87;;;;;;;;;;5095436;28;20895;-69
2022/10/19 11:29:51;;;;;;;8.87;3.40;;;;;;;;;;5094455;28;20552;-68
2022/10/19 11:32:26;;;;;;;8.90;4.70;;;;;;;;;;5094679;28;20520;-68
2022/10/19 11:34:58;;;;;;;6.67;2.80;;;;;;;;;;5094822;28;20427;-68
2022/10/19 11:37:28;;;;;;;7.10;3.20;;;;;;;;;;5095185;28;20430;-68
2022/10/19 11:40:01;;;;;;;8.40;3.23;;;;;;;;;;5095055;28;20429;-68
2022/10/19 11:42:34;;;;;;;8.30;3.13;;;;;;;;;;5094955;28;20461;-68
2022/10/19 11:45:05;;;;;;;10.33;2.87;;;;;;;;;;5093574;28;20437;-68
2022/10/19 11:47:42;;;;;;;6.40;3.37;;;;;;;;;;5094865;28;20430;-68
2022/10/19 11:50:13;;;;;;;5.63;2.97;;;;;;;;;;5094473;28;20472;-68
2022/10/19 11:52:46;;;;;;;8.27;5.40;;;;;;;;;;5094380;28;20437;-68
2022/10/19 11:55:19;;;;;;;10.60;3.90;;;;;;;;;;5094395;28;20931;-68
2022/10/19 11:57:50;;;;;;;5.50;4.50;;;;;;;;;;5094197;28;20436;-68
2022/10/19 12:00:19;;;;;;;12.30;4.20;;;;;;;;;;5094295;28;20437;-68
2022/10/19 12:02:57;;;;;;;9.17;4.97;;;;;;;;;;5094522;28;20789;-68
2022/10/19 12:05:26;;;;;;;6.37;3.67;;;;;;;;;;5094356;28;20451;-68
2022/10/19 12:08:06;;;;;;;5.13;4.20;;;;;;;;;;5093907;28;20446;-68
2022/10/19 12:10:38;;;;;;;6.17;3.60;;;;;;;;;;5094025;28;20790;-69
2022/10/19 12:13:08;;;;;;;6.60;3.47;;;;;;;;;;5094271;28;20434;-69
2022/10/19 12:15:38;;;;;;;3.40;3.10;;;;;;;;;;5092941;28;20428;-68
2022/10/19 12:18:11;;;;;;;6.10;3.30;;;;;;;;;;5093802;28;20953;-68
2022/10/19 12:20:42;;;;;;;7.00;3.00;;;;;;;;;;5093911;28;20434;-68
2022/10/19 12:23:17;;;;;;;4.47;4.03;;;;;;;;;;5093831;28;20433;-69
2022/10/19 12:25:45;;;;;;;8.70;3.67;;;;;;;;;;5093653;28;20896;-69
2022/10/19 12:28:19;;;;;;;3.50;3.00;;;;;;;;;;5093625;28;20883;-68
2022/10/19 12:30:46;;;;;;;3.10;2.80;;;;;;;;;;5093691;28;20439;-66
2022/10/19 12:33:19;;;;;;;3.63;2.93;;;;;;;;;;5093972;28;20441;-68
2022/10/19 12:35:53;;;;;;;3.87;3.57;;;;;;;;;;5093828;28;21017;-68
2022/10/19 12:38:25;;;;;;;6.73;3.30;;;;;;;;;;5093558;28;20497;-68
2022/10/19 12:40:55;;;;;;;3.30;3.00;;;;;;;;;;5093502;28;20430;-68
2022/10/19 12:43:28;;;;;;;8.30;3.13;;;;;;;;;;5093491;28;20437;-68
2022/10/19 12:46:00;;;;;;;9.70;4.03;;;;;;;;;;5093664;28;20527;-68
2022/10/19 12:48:29;;;;;;;6.33;3.30;;;;;;;;;;5093893;28;20555;-68
2022/10/19 12:51:07;;;;;;;4.30;2.30;;;;;;;;;;5093309;28;20447;-68
2022/10/19 12:53:36;;;;;;;4.43;2.80;;;;;;;;;;5093553;28;20524;-68
2022/10/19 12:56:05;;;;;;;13.90;3.93;;;;;;;;;;5093751;28;20453;-67
2022/10/19 12:58:35;;;;;;;9.50;5.27;;;;;;;;;;5093254;28;20933;-67
2022/10/19 13:01:04;;;;;;;5.27;4.77;;;;;;;;;;5093652;28;20449;-67
2022/10/19 13:03:34;;;;;;;3.50;2.53;;;;;;;;;;5093549;28;20547;-67
2022/10/19 13:06:02;;;;;;;4.07;2.03;;;;;;;;;;5093795;28;20453;-68
2022/10/19 13:08:31;;;;;;;5.67;2.80;;;;;;;;;;5092929;28;20445;-67
2022/10/19 13:11:06;;;;;;;9.00;2.93;;;;;;;;;;5093167;28;20943;-67
2022/10/19 13:13:57;;;;;;;3.10;2.80;;;;;;;;;;5093157;28;20937;-67
2022/10/19 13:16:39;;;;;;;5.30;3.00;;;;;;;;;;5078417;28;20534;-67
2022/10/19 13:19:20;;;;;;;5.40;2.47;;;;;;;;;;5093483;28;20511;-68
2022/10/19 13:21:52;;;;;;;6.83;3.93;;;;;;;;;;5094222;28;20846;-67
2022/10/19 13:24:30;;;;;;;2.20;2.00;;;;;;;;;;5093195;28;20490;-67
2022/10/19 13:27:15;;;;;;;3.50;2.53;;;;;;;;;;5093443;28;20434;-67
2022/10/19 13:29:43;;;;;;;4.93;2.90;;;;;;;;;;5083219;28;20487;-68
2022/10/19 13:32:29;;;;;;;5.00;2.63;;;;;;;;;;5092948;28;20498;-67
2022/10/19 13:35:13;;;;;;;6.40;2.63;;;;;;;;;;5092907;28;20934;-68
2022/10/19 13:37:40;;;;;;;3.23;2.40;;;;;;;;;;5092881;28;20434;-67
2022/10/19 13:40:18;;;;;;;3.57;2.83;;;;;;;;;;5093351;28;20527;-67
2022/10/19 13:42:45;;;;;;;4.47;2.90;;;;;;;;;;5092996;28;20430;-68
2022/10/19 13:45:22;;;;;;;5.50;2.60;;;;;;;;;;5093126;28;20491;-68
2022/10/19 13:47:52;;;;;;;9.50;3.70;;;;;;;;;;5093505;28;20468;-68
2022/10/19 13:50:26;;;;;;;3.80;2.67;;;;;;;;;;5093493;28;20821;-67
2022/10/19 13:53:02;;;;;;;4.27;2.37;;;;;;;;;;5093213;28;20437;-67
2022/10/19 13:55:40;;;;;;;8.00;3.30;;;;;;;;;;5093125;28;20437;-68
2022/10/19 13:58:18;;;;;;;6.40;3.10;;;;;;;;;;5092677;28;20436;-68
2022/10/19 14:00:56;;;;;;;3.87;2.87;;;;;;;;;;5093438;28;20441;-68
2022/10/19 14:03:29;;;;;;;4.63;2.17;;;;;;;;;;5092601;28;20427;-68
2022/10/19 14:06:14;;;;;;;5.40;2.80;;;;;;;;;;5093031;28;20818;-68
2022/10/19 14:08:59;;;;;;;3.47;2.77;;;;;;;;;;5095652;28;20431;-68
2022/10/19 14:11:27;;;;;;;5.20;2.30;;;;;;;;;;5095781;28;20829;-68
2022/10/19 14:14:14;;;;;;;8.83;2.60;;;;;;;;;;5096055;28;20442;-68
2022/10/19 14:16:52;;;;;;;5.03;3.10;;;;;;;;;;5096428;28;20449;-68
2022/10/19 14:19:27;;;;;;;4.73;2.57;;;;;;;;;;5096041;28;20535;-67
2022/10/19 14:21:56;;;;;;;5.83;2.63;;;;;;;;;;5096212;28;20959;-67
2022/10/19 14:24:31;;;;;;;5.90;3.33;;;;;;;;;;5095987;28;20469;-68
2022/10/19 14:27:00;;;;;;;3.73;2.30;;;;;;;;;;5096418;28;20510;-69
2022/10/19 14:29:27;;;;;;;5.93;3.60;;;;;;;;;;5096213;28;20489;-67
2022/10/19 14:31:54;;;;;;;5.30;2.67;;;;;;;;;;5096909;28;20489;-67
2022/10/19 14:34:24;;;;;;;6.37;4.37;;;;;;;;;;5095832;28;20453;-67
2022/10/19 14:36:52;;;;;;;7.10;2.33;;;;;;;;;;5096369;28;20532;-68
2022/10/19 14:39:30;;;;;;;2.90;2.50;;;;;;;;;;5095335;28;20465;-67
2022/10/19 14:41:57;;;;;;;5.90;2.80;;;;;;;;;;5095654;28;20441;-68
2022/10/19 14:44:37;;;;;;;6.00;3.00;;;;;;;;;;5078966;28;20443;-68
2022/10/19 14:47:07;;;;;;;3.77;2.30;;;;;;;;;;5075763;28;20501;-67
2022/10/19 14:49:34;;;;;;;4.40;2.80;;;;;;;;;;5075657;28;20490;-68